createdAt,value
2018-12-22T19:46:52.058Z,11.40
2018-12-22T19:49:19.741Z,11.30
2018-12-22T19:51:47.485Z,11.50
2018-12-22T19:54:15.253Z,11.50
2018-12-22T19:56:42.915Z,11.30
2018-12-22T19:59:10.457Z,11.30
2018-12-22T20:01:38.165Z,11.20
2018-12-22T20:04:05.877Z,11.30
2018-12-22T20:06:33.676Z,11.30
2018-12-22T20:09:01.449Z,11.20
2018-12-22T20:11:29.428Z,11.30
2018-12-22T20:13:57.174Z,11.10
2018-12-22T20:16:24.802Z,11.10
2018-12-22T20:18:52.409Z,11.30
2018-12-22T20:21:20.158Z,11.30
2018-12-22T20:23:47.846Z,10.90
2018-12-22T20:26:15.658Z,11.30
2018-12-22T20:28:43.294Z,11.40
2018-12-22T20:31:10.995Z,11.40
2018-12-22T20:33:38.685Z,11.40
2018-12-22T20:36:06.485Z,11.40
2018-12-22T20:38:34.162Z,11.40
2018-12-22T20:41:02.706Z,11.20
2018-12-22T20:43:30.370Z,11.10
2018-12-22T20:45:58.025Z,11.20
2018-12-22T20:48:25.818Z,10.90
2018-12-22T20:50:53.505Z,11.20
2018-12-22T20:53:21.342Z,11.50
2018-12-22T20:55:49.137Z,10.60
2018-12-22T20:58:16.897Z,11.20
2018-12-22T21:00:44.649Z,11.10
2018-12-22T21:03:12.414Z,11.10
2018-12-22T21:05:46.494Z,11.00
2018-12-22T21:08:14.104Z,10.90
2018-12-22T21:10:42.044Z,11.20
2018-12-22T21:13:09.889Z,11.20
2018-12-22T21:15:37.931Z,11.20
2018-12-22T21:18:05.845Z,11.20
2018-12-22T21:20:33.586Z,11.00
2018-12-22T21:23:01.298Z,11.10
2018-12-22T21:25:29.048Z,11.10
2018-12-22T21:27:56.709Z,11.00
2018-12-22T21:30:24.433Z,11.20
2018-12-22T21:32:52.365Z,11.10
2018-12-22T21:35:20.065Z,11.00
2018-12-22T21:37:48.105Z,11.10
2018-12-22T21:40:15.867Z,11.20
2018-12-22T21:42:43.634Z,11.00
2018-12-22T21:45:11.353Z,11.00
2018-12-22T21:47:39.003Z,10.90
2018-12-22T21:50:07.062Z,11.00
2018-12-22T21:52:35.409Z,10.80
2018-12-22T21:55:03.476Z,10.80
2018-12-22T21:57:31.166Z,10.70
2018-12-22T21:59:58.846Z,10.80
2018-12-22T22:02:26.552Z,10.80
2018-12-22T22:04:54.261Z,10.80
2018-12-22T22:07:22.122Z,10.90
2018-12-22T22:09:49.985Z,10.40
2018-12-22T22:12:17.794Z,10.40
2018-12-22T22:14:45.711Z,10.50
2018-12-22T22:17:13.359Z,10.60
2018-12-22T22:19:41.133Z,10.30
2018-12-22T22:22:08.951Z,10.10
2018-12-22T22:24:36.656Z,10.40
2018-12-22T22:27:04.282Z,10.50
2018-12-22T22:29:32.009Z,10.40
2018-12-22T22:32:00.449Z,10.40
2018-12-22T22:34:28.162Z,10.40
2018-12-22T22:36:55.825Z,10.30
2018-12-22T22:39:23.462Z,10.40
2018-12-22T22:41:51.122Z,10.30
2018-12-22T22:44:19.090Z,10.50
2018-12-22T22:46:46.806Z,10.40
2018-12-22T22:49:14.438Z,10.50
2018-12-22T22:51:42.161Z,10.60
2018-12-22T22:54:09.842Z,10.70
2018-12-22T22:56:37.525Z,10.50
2018-12-22T22:59:05.234Z,10.80
2018-12-22T23:01:32.934Z,11.10
2018-12-22T23:04:00.719Z,10.60
2018-12-22T23:06:28.578Z,10.80
2018-12-22T23:08:56.342Z,10.70
2018-12-22T23:11:24.225Z,10.70
2018-12-22T23:13:51.882Z,10.70
2018-12-22T23:16:20.518Z,10.70
2018-12-22T23:18:48.259Z,10.80
2018-12-22T23:21:16.037Z,10.70
2018-12-22T23:23:43.778Z,10.80
2018-12-22T23:26:11.542Z,10.70
2018-12-22T23:28:39.380Z,11.00
2018-12-22T23:31:07.142Z,10.70
2018-12-22T23:33:34.885Z,11.00
2018-12-22T23:36:02.621Z,10.90
2018-12-22T23:38:30.362Z,10.70
2018-12-22T23:40:58.137Z,10.80
2018-12-22T23:43:25.794Z,11.00
2018-12-22T23:45:53.506Z,10.70
2018-12-22T23:48:21.069Z,10.80
2018-12-22T23:50:48.794Z,10.60
2018-12-22T23:53:16.641Z,10.60
2018-12-22T23:55:44.321Z,10.70
2018-12-22T23:58:12.089Z,10.90
